sensor_id;sensor_type;location;lat;lon;timestamp;pressure;altitude;pressure_sealevel;temperature;humidity
9462;BME280;4769;42.660;23.262;2023-09-08T00:02:00;94459.66;;;21.31;77.48
9462;BME280;4769;42.660;23.262;2023-09-08T00:04:29;94464.00;;;21.13;79.03
9462;BME280;4769;42.660;23.262;2023-09-08T00:06:54;94456.75;;;21.14;79.08
9462;BME280;4769;42.660;23.262;2023-09-08T00:09:20;94449.03;;;21.12;77.99
9462;BME280;4769;42.660;23.262;2023-09-08T00:11:46;94465.41;;;21.11;72.87
9462;BME280;4769;42.660;23.262;2023-09-08T00:14:12;94461.34;;;21.13;68.61
9462;BME280;4769;42.660;23.262;2023-09-08T00:16:37;94461.81;;;21.15;68.19
9462;BME280;4769;42.660;23.262;2023-09-08T00:19:03;94462.44;;;21.12;69.37
9462;BME280;4769;42.660;23.262;2023-09-08T00:21:32;94457.66;;;21.23;70.54
9462;BME280;4769;42.660;23.262;2023-09-08T00:23:57;94455.25;;;21.08;71.68
9462;BME280;4769;42.660;23.262;2023-09-08T00:26:23;94446.16;;;21.22;69.24
9462;BME280;4769;42.660;23.262;2023-09-08T00:28:49;94449.72;;;21.31;68.22
9462;BME280;4769;42.660;23.262;2023-09-08T00:31:15;94436.00;;;21.19;67.84
9462;BME280;4769;42.660;23.262;2023-09-08T00:33:40;94446.16;;;21.22;68.25
9462;BME280;4769;42.660;23.262;2023-09-08T00:36:06;94449.00;;;21.26;68.57
9462;BME280;4769;42.660;23.262;2023-09-08T00:38:35;94437.69;;;21.15;67.90
9462;BME280;4769;42.660;23.262;2023-09-08T00:41:00;94444.44;;;20.99;68.66
9462;BME280;4769;42.660;23.262;2023-09-08T00:43:26;94452.88;;;21.06;69.10
9462;BME280;4769;42.660;23.262;2023-09-08T00:45:54;94456.75;;;21.00;69.46
9462;BME280;4769;42.660;23.262;2023-09-08T00:48:21;94442.13;;;20.93;69.27
9462;BME280;4769;42.660;23.262;2023-09-08T00:50:46;94443.63;;;20.99;69.41
9462;BME280;4769;42.660;23.262;2023-09-08T00:53:13;94451.00;;;20.93;69.11
9462;BME280;4769;42.660;23.262;2023-09-08T00:55:41;94433.50;;;20.96;67.57
9462;BME280;4769;42.660;23.262;2023-09-08T00:58:07;94443.53;;;21.04;67.34
9462;BME280;4769;42.660;23.262;2023-09-08T01:00:33;94443.03;;;21.15;66.89
9462;BME280;4769;42.660;23.262;2023-09-08T01:02:59;94445.22;;;21.27;66.28
9462;BME280;4769;42.660;23.262;2023-09-08T01:05:25;94440.88;;;21.17;66.32
9462;BME280;4769;42.660;23.262;2023-09-08T01:07:52;94446.34;;;21.12;67.06
9462;BME280;4769;42.660;23.262;2023-09-08T01:10:18;94441.75;;;20.99;67.42
9462;BME280;4769;42.660;23.262;2023-09-08T01:12:47;94442.38;;;21.10;67.56
9462;BME280;4769;42.660;23.262;2023-09-08T01:15:12;94449.41;;;21.19;67.28
9462;BME280;4769;42.660;23.262;2023-09-08T01:17:38;94444.66;;;21.30;67.09
9462;BME280;4769;42.660;23.262;2023-09-08T01:20:08;94452.19;;;21.28;67.46
9462;BME280;4769;42.660;23.262;2023-09-08T01:22:50;94447.72;;;21.23;68.21
9462;BME280;4769;42.660;23.262;2023-09-08T01:25:25;94450.22;;;21.20;68.51
9462;BME280;4769;42.660;23.262;2023-09-08T01:27:53;94448.88;;;21.04;69.27
9462;BME280;4769;42.660;23.262;2023-09-08T01:30:20;94455.16;;;20.99;69.87
9462;BME280;4769;42.660;23.262;2023-09-08T01:32:47;94441.66;;;21.04;69.57
9462;BME280;4769;42.660;23.262;2023-09-08T01:35:13;94435.72;;;21.07;69.70
9462;BME280;4769;42.660;23.262;2023-09-08T01:37:40;94439.25;;;21.03;70.36
9462;BME280;4769;42.660;23.262;2023-09-08T01:40:07;94431.28;;;20.84;71.56
9462;BME280;4769;42.660;23.262;2023-09-08T01:42:36;94430.28;;;20.80;71.67
9462;BME280;4769;42.660;23.262;2023-09-08T01:45:01;94418.66;;;20.71;72.17
9462;BME280;4769;42.660;23.262;2023-09-08T01:47:29;94432.34;;;20.83;72.66
9462;BME280;4769;42.660;23.262;2023-09-08T01:49:55;94424.91;;;20.80;72.50
9462;BME280;4769;42.660;23.262;2023-09-08T01:52:21;94424.00;;;20.71;73.03
9462;BME280;4769;42.660;23.262;2023-09-08T01:54:46;94417.66;;;20.67;73.87
9462;BME280;4769;42.660;23.262;2023-09-08T01:57:12;94421.31;;;20.71;74.27
9462;BME280;4769;42.660;23.262;2023-09-08T01:59:40;94429.31;;;20.58;75.43
9462;BME280;4769;42.660;23.262;2023-09-08T02:02:06;94436.19;;;20.64;75.39
9462;BME280;4769;42.660;23.262;2023-09-08T02:04:32;94433.06;;;20.43;76.40
9462;BME280;4769;42.660;23.262;2023-09-08T02:06:58;94429.72;;;20.51;76.37
9462;BME280;4769;42.660;23.262;2023-09-08T02:09:30;94433.16;;;20.70;75.42
9462;BME280;4769;42.660;23.262;2023-09-08T02:11:56;94434.75;;;20.53;76.43
9462;BME280;4769;42.660;23.262;2023-09-08T02:14:22;94432.41;;;20.51;77.00
9462;BME280;4769;42.660;23.262;2023-09-08T02:16:50;94425.81;;;20.44;77.64
9462;BME280;4769;42.660;23.262;2023-09-08T02:19:16;94434.28;;;20.32;78.79
9462;BME280;4769;42.660;23.262;2023-09-08T02:21:42;94427.69;;;20.11;80.21
9462;BME280;4769;42.660;23.262;2023-09-08T02:24:08;94424.25;;;20.06;80.73
9462;BME280;4769;42.660;23.262;2023-09-08T02:26:33;94428.78;;;20.10;81.45
9462;BME280;4769;42.660;23.262;2023-09-08T02:28:59;94419.25;;;19.99;81.90
9462;BME280;4769;42.660;23.262;2023-09-08T02:31:26;94420.22;;;20.08;81.59
9462;BME280;4769;42.660;23.262;2023-09-08T02:33:54;94422.31;;;20.11;81.82
9462;BME280;4769;42.660;23.262;2023-09-08T02:36:20;94424.81;;;20.08;82.31
9462;BME280;4769;42.660;23.262;2023-09-08T02:38:45;94428.34;;;20.22;82.19
9462;BME280;4769;42.660;23.262;2023-09-08T02:41:11;94409.56;;;20.03;83.00
9462;BME280;4769;42.660;23.262;2023-09-08T02:43:37;94406.47;;;19.96;83.38
9462;BME280;4769;42.660;23.262;2023-09-08T02:46:02;94418.47;;;20.17;83.17
9462;BME280;4769;42.660;23.262;2023-09-08T02:48:28;94414.13;;;20.03;84.14
9462;BME280;4769;42.660;23.262;2023-09-08T02:50:56;94416.00;;;20.02;84.38
9462;BME280;4769;42.660;23.262;2023-09-08T02:53:23;94426.88;;;20.11;84.75
9462;BME280;4769;42.660;23.262;2023-09-08T02:55:48;94424.03;;;20.02;85.33
9462;BME280;4769;42.660;23.262;2023-09-08T02:58:14;94422.00;;;19.94;86.58
9462;BME280;4769;42.660;23.262;2023-09-08T03:00:40;94418.19;;;20.00;86.93
9462;BME280;4769;42.660;23.262;2023-09-08T03:03:06;94421.06;;;20.04;87.52
9462;BME280;4769;42.660;23.262;2023-09-08T03:05:32;94425.41;;;19.81;88.86
9462;BME280;4769;42.660;23.262;2023-09-08T03:08:00;94422.31;;;19.74;89.73
9462;BME280;4769;42.660;23.262;2023-09-08T03:10:26;94421.66;;;19.64;91.20
9462;BME280;4769;42.660;23.262;2023-09-08T03:12:51;94420.56;;;19.65;92.20
9462;BME280;4769;42.660;23.262;2023-09-08T03:15:17;94425.34;;;19.49;93.83
9462;BME280;4769;42.660;23.262;2023-09-08T03:17:43;94427.06;;;19.40;94.85
9462;BME280;4769;42.660;23.262;2023-09-08T03:20:10;94426.72;;;19.47;95.08
9462;BME280;4769;42.660;23.262;2023-09-08T03:22:36;94418.50;;;19.38;95.07
9462;BME280;4769;42.660;23.262;2023-09-08T03:25:05;94430.34;;;19.32;95.96
9462;BME280;4769;42.660;23.262;2023-09-08T03:27:31;94436.56;;;19.28;96.71
9462;BME280;4769;42.660;23.262;2023-09-08T03:29:56;94440.19;;;19.37;96.38
9462;BME280;4769;42.660;23.262;2023-09-08T03:32:22;94446.25;;;19.24;97.44
9462;BME280;4769;42.660;23.262;2023-09-08T03:34:48;94444.09;;;19.21;97.74
9462;BME280;4769;42.660;23.262;2023-09-08T03:37:14;94453.19;;;19.25;97.36
9462;BME280;4769;42.660;23.262;2023-09-08T03:39:39;94432.78;;;19.05;97.55
9462;BME280;4769;42.660;23.262;2023-09-08T03:42:08;94452.94;;;19.21;97.11
9462;BME280;4769;42.660;23.262;2023-09-08T03:44:33;94452.50;;;19.09;97.23
9462;BME280;4769;42.660;23.262;2023-09-08T03:46:59;94457.50;;;18.92;97.45
9462;BME280;4769;42.660;23.262;2023-09-08T03:49:25;94454.22;;;18.77;98.07
9462;BME280;4769;42.660;23.262;2023-09-08T03:51:50;94439.56;;;18.69;98.61
9462;BME280;4769;42.660;23.262;2023-09-08T03:54:16;94449.81;;;18.86;98.69
9462;BME280;4769;42.660;23.262;2023-09-08T03:56:42;94455.63;;;18.93;98.27
9462;BME280;4769;42.660;23.262;2023-09-08T03:59:10;94443.09;;;18.93;98.05
9462;BME280;4769;42.660;23.262;2023-09-08T04:01:36;94452.47;;;18.86;98.89
9462;BME280;4769;42.660;23.262;2023-09-08T04:04:02;94443.63;;;18.90;98.08
9462;BME280;4769;42.660;23.262;2023-09-08T04:06:27;94444.44;;;18.91;98.34
9462;BME280;4769;42.660;23.262;2023-09-08T04:08:53;94449.53;;;18.87;99.73
9462;BME280;4769;42.660;23.262;2023-09-08T04:11:19;94441.56;;;18.82;100.00
9462;BME280;4769;42.660;23.262;2023-09-08T04:13:45;94440.91;;;18.95;100.00
9462;BME280;4769;42.660;23.262;2023-09-08T04:16:13;94451.75;;;19.04;100.00
9462;BME280;4769;42.660;23.262;2023-09-08T04:18:39;94454.44;;;19.04;100.00
9462;BME280;4769;42.660;23.262;2023-09-08T04:21:06;94448.81;;;19.05;100.00
9462;BME280;4769;42.660;23.262;2023-09-08T04:23:32;94446.16;;;19.05;100.00
9462;BME280;4769;42.660;23.262;2023-09-08T04:25:57;94443.41;;;19.10;100.00
9462;BME280;4769;42.660;23.262;2023-09-08T04:28:23;94446.66;;;19.07;100.00
9462;BME280;4769;42.660;23.262;2023-09-08T04:30:49;94452.28;;;19.06;100.00
9462;BME280;4769;42.660;23.262;2023-09-08T04:33:17;94461.47;;;19.23;100.00
9462;BME280;4769;42.660;23.262;2023-09-08T04:35:43;94457.31;;;19.36;100.00
9462;BME280;4769;42.660;23.262;2023-09-08T04:38:09;94450.59;;;19.38;100.00
9462;BME280;4769;42.660;23.262;2023-09-08T04:40:34;94462.19;;;19.52;99.32
9462;BME280;4769;42.660;23.262;2023-09-08T04:43:00;94453.66;;;19.50;99.60
9462;BME280;4769;42.660;23.262;2023-09-08T04:45:26;94465.59;;;19.58;99.39
9462;BME280;4769;42.660;23.262;2023-09-08T04:47:51;94465.53;;;19.63;98.72
9462;BME280;4769;42.660;23.262;2023-09-08T04:50:20;94461.94;;;19.72;98.58
9462;BME280;4769;42.660;23.262;2023-09-08T04:52:46;94452.63;;;19.70;98.36
9462;BME280;4769;42.660;23.262;2023-09-08T04:55:11;94448.50;;;19.77;97.41
9462;BME280;4769;42.660;23.262;2023-09-08T04:57:37;94459.06;;;19.87;97.29
9462;BME280;4769;42.660;23.262;2023-09-08T05:00:03;94461.22;;;19.85;97.21
9462;BME280;4769;42.660;23.262;2023-09-08T05:02:29;94465.94;;;19.93;96.77
9462;BME280;4769;42.660;23.262;2023-09-08T05:04:55;94455.22;;;19.93;97.12
9462;BME280;4769;42.660;23.262;2023-09-08T05:07:23;94463.38;;;20.02;96.78
9462;BME280;4769;42.660;23.262;2023-09-08T05:09:49;94452.75;;;19.97;96.10
9462;BME280;4769;42.660;23.262;2023-09-08T05:12:15;94452.28;;;20.13;95.08
9462;BME280;4769;42.660;23.262;2023-09-08T05:14:40;94464.06;;;20.31;94.83
9462;BME280;4769;42.660;23.262;2023-09-08T05:17:06;94463.09;;;20.40;93.37
9462;BME280;4769;42.660;23.262;2023-09-08T05:19:32;94455.22;;;20.49;91.45
9462;BME280;4769;42.660;23.262;2023-09-08T05:21:58;94446.38;;;20.48;90.64
9462;BME280;4769;42.660;23.262;2023-09-08T05:24:26;94455.63;;;20.56;88.40
9462;BME280;4769;42.660;23.262;2023-09-08T05:26:52;94458.31;;;20.69;87.08
9462;BME280;4769;42.660;23.262;2023-09-08T05:29:17;94456.16;;;20.71;85.07
9462;BME280;4769;42.660;23.262;2023-09-08T05:31:43;94460.97;;;20.88;82.94
9462;BME280;4769;42.660;23.262;2023-09-08T05:34:09;94457.94;;;20.94;81.80
9462;BME280;4769;42.660;23.262;2023-09-08T05:36:35;94456.19;;;20.85;82.41
9462;BME280;4769;42.660;23.262;2023-09-08T05:39:00;94453.34;;;20.95;82.28
9462;BME280;4769;42.660;23.262;2023-09-08T05:41:29;94466.28;;;21.06;81.63
9462;BME280;4769;42.660;23.262;2023-09-08T05:43:55;94460.66;;;21.21;80.90
9462;BME280;4769;42.660;23.262;2023-09-08T05:46:20;94456.19;;;21.30;80.08
9462;BME280;4769;42.660;23.262;2023-09-08T05:48:46;94461.03;;;21.42;79.74
9462;BME280;4769;42.660;23.262;2023-09-08T05:51:12;94462.81;;;21.46;77.47
9462;BME280;4769;42.660;23.262;2023-09-08T05:53:38;94462.22;;;21.36;76.16
9462;BME280;4769;42.660;23.262;2023-09-08T05:56:04;94464.69;;;21.46;73.56
9462;BME280;4769;42.660;23.262;2023-09-08T05:58:32;94459.84;;;21.88;73.99
9462;BME280;4769;42.660;23.262;2023-09-08T06:00:58;94461.88;;;22.05;70.14
9462;BME280;4769;42.660;23.262;2023-09-08T06:03:23;94469.06;;;21.96;68.54
9462;BME280;4769;42.660;23.262;2023-09-08T06:05:49;94465.38;;;22.05;68.68
9462;BME280;4769;42.660;23.262;2023-09-08T06:08:15;94462.28;;;22.12;69.75
9462;BME280;4769;42.660;23.262;2023-09-08T06:10:40;94471.56;;;22.28;68.06
9462;BME280;4769;42.660;23.262;2023-09-08T06:13:06;94463.09;;;22.34;67.80
9462;BME280;4769;42.660;23.262;2023-09-08T06:15:35;94459.59;;;22.34;66.86
9462;BME280;4769;42.660;23.262;2023-09-08T06:18:00;94462.19;;;22.61;65.62
9462;BME280;4769;42.660;23.262;2023-09-08T06:20:26;94473.06;;;22.56;66.01
9462;BME280;4769;42.660;23.262;2023-09-08T06:22:52;94466.97;;;22.64;65.29
9462;BME280;4769;42.660;23.262;2023-09-08T06:25:17;94468.31;;;22.75;65.43
9462;BME280;4769;42.660;23.262;2023-09-08T06:27:43;94468.97;;;22.80;64.25
9462;BME280;4769;42.660;23.262;2023-09-08T06:30:10;94480.75;;;22.93;63.75
9462;BME280;4769;42.660;23.262;2023-09-08T06:32:39;94466.47;;;22.84;63.43
9462;BME280;4769;42.660;23.262;2023-09-08T06:35:05;94475.00;;;22.86;62.60
9462;BME280;4769;42.660;23.262;2023-09-08T06:37:35;94489.34;;;22.73;62.35
9462;BME280;4769;42.660;23.262;2023-09-08T06:40:01;94486.09;;;22.84;61.12
9462;BME280;4769;42.660;23.262;2023-09-08T06:42:26;94492.88;;;22.60;61.14
9462;BME280;4769;42.660;23.262;2023-09-08T06:44:52;94494.50;;;23.13;60.02
9462;BME280;4769;42.660;23.262;2023-09-08T06:47:18;94496.53;;;23.38;58.82
9462;BME280;4769;42.660;23.262;2023-09-08T06:49:47;94492.91;;;23.12;58.18
9462;BME280;4769;42.660;23.262;2023-09-08T06:52:12;94497.94;;;23.14;57.64
9462;BME280;4769;42.660;23.262;2023-09-08T06:54:38;94489.09;;;23.35;57.64
9462;BME280;4769;42.660;23.262;2023-09-08T06:57:04;94497.97;;;23.83;56.21
9462;BME280;4769;42.660;23.262;2023-09-08T06:59:30;94492.50;;;24.14;54.16
9462;BME280;4769;42.660;23.262;2023-09-08T07:01:56;94502.69;;;24.17;53.55
9462;BME280;4769;42.660;23.262;2023-09-08T07:04:21;94487.94;;;24.32;53.90
9462;BME280;4769;42.660;23.262;2023-09-08T07:06:50;94495.59;;;24.64;54.45
9462;BME280;4769;42.660;23.262;2023-09-08T07:09:16;94499.53;;;24.66;51.97
9462;BME280;4769;42.660;23.262;2023-09-08T07:11:41;94494.28;;;24.53;52.00
9462;BME280;4769;42.660;23.262;2023-09-08T07:14:07;94502.41;;;24.61;52.00
9462;BME280;4769;42.660;23.262;2023-09-08T07:16:33;94484.16;;;24.75;51.68
9462;BME280;4769;42.660;23.262;2023-09-08T07:18:59;94502.19;;;25.09;52.01
9462;BME280;4769;42.660;23.262;2023-09-08T07:21:24;94490.16;;;24.89;51.59
9462;BME280;4769;42.660;23.262;2023-09-08T07:23:53;94496.75;;;25.26;50.74
9462;BME280;4769;42.660;23.262;2023-09-08T07:26:19;94470.69;;;25.47;49.02
9462;BME280;4769;42.660;23.262;2023-09-08T07:28:44;94476.91;;;25.68;48.82
9462;BME280;4769;42.660;23.262;2023-09-08T07:31:11;94485.28;;;25.83;48.56
9462;BME280;4769;42.660;23.262;2023-09-08T07:33:37;94480.84;;;25.79;48.06
9462;BME280;4769;42.660;23.262;2023-09-08T07:36:06;94488.47;;;25.85;48.92
9462;BME280;4769;42.660;23.262;2023-09-08T07:38:32;94476.66;;;25.90;47.24
9462;BME280;4769;42.660;23.262;2023-09-08T07:41:01;94484.06;;;26.30;47.53
9462;BME280;4769;42.660;23.262;2023-09-08T07:43:27;94486.13;;;26.54;46.27
9462;BME280;4769;42.660;23.262;2023-09-08T07:45:52;94473.56;;;26.58;46.57
9462;BME280;4769;42.660;23.262;2023-09-08T07:48:18;94466.72;;;26.72;45.23
9462;BME280;4769;42.660;23.262;2023-09-08T07:50:44;94485.22;;;27.03;44.76
9462;BME280;4769;42.660;23.262;2023-09-08T07:53:10;94483.91;;;27.09;44.09
9462;BME280;4769;42.660;23.262;2023-09-08T07:55:35;94485.38;;;27.06;44.36
9462;BME280;4769;42.660;23.262;2023-09-08T07:58:04;94470.22;;;26.93;43.39
9462;BME280;4769;42.660;23.262;2023-09-08T08:00:30;94489.59;;;26.95;43.91
9462;BME280;4769;42.660;23.262;2023-09-08T08:02:56;94471.06;;;27.18;43.86
9462;BME280;4769;42.660;23.262;2023-09-08T08:05:23;94480.91;;;27.79;42.91
9462;BME280;4769;42.660;23.262;2023-09-08T08:07:49;94484.72;;;27.66;42.20
9462;BME280;4769;42.660;23.262;2023-09-08T08:10:15;94478.09;;;27.19;42.90
9462;BME280;4769;42.660;23.262;2023-09-08T08:12:41;94471.44;;;27.28;42.81
9462;BME280;4769;42.660;23.262;2023-09-08T08:15:11;94473.28;;;27.04;43.56
9462;BME280;4769;42.660;23.262;2023-09-08T08:17:37;94468.66;;;27.37;43.36
9462;BME280;4769;42.660;23.262;2023-09-08T08:20:03;94476.97;;;26.67;44.81
9462;BME280;4769;42.660;23.262;2023-09-08T08:22:29;94482.59;;;26.94;44.80
9462;BME280;4769;42.660;23.262;2023-09-08T08:24:54;94477.63;;;27.73;44.07
9462;BME280;4769;42.660;23.262;2023-09-08T08:27:20;94476.47;;;28.34;42.32
9462;BME280;4769;42.660;23.262;2023-09-08T08:29:46;94479.06;;;28.55;41.55
9462;BME280;4769;42.660;23.262;2023-09-08T08:32:14;94476.19;;;28.12;42.68
9462;BME280;4769;42.660;23.262;2023-09-08T08:34:40;94472.13;;;27.94;41.48
9462;BME280;4769;42.660;23.262;2023-09-08T08:37:06;94464.66;;;27.91;42.89
9462;BME280;4769;42.660;23.262;2023-09-08T08:39:31;94468.22;;;27.14;43.18
9462;BME280;4769;42.660;23.262;2023-09-08T08:41:57;94468.59;;;27.57;42.73
9462;BME280;4769;42.660;23.262;2023-09-08T08:44:23;94454.22;;;28.29;40.58
9462;BME280;4769;42.660;23.262;2023-09-08T08:46:50;94452.06;;;28.34;39.06
9462;BME280;4769;42.660;23.262;2023-09-08T08:49:19;94458.75;;;28.25;39.13
9462;BME280;4769;42.660;23.262;2023-09-08T08:51:46;94459.09;;;28.75;38.02
9462;BME280;4769;42.660;23.262;2023-09-08T08:54:13;94453.13;;;27.82;38.84
9462;BME280;4769;42.660;23.262;2023-09-08T08:56:41;94455.03;;;28.69;37.92
9462;BME280;4769;42.660;23.262;2023-09-08T08:59:08;94449.25;;;29.10;37.10
9462;BME280;4769;42.660;23.262;2023-09-08T09:01:35;94449.75;;;28.88;37.58
9462;BME280;4769;42.660;23.262;2023-09-08T09:04:05;94451.41;;;28.25;37.47
9462;BME280;4769;42.660;23.262;2023-09-08T09:06:33;94455.50;;;28.07;37.62
9462;BME280;4769;42.660;23.262;2023-09-08T09:08:59;94458.06;;;28.28;37.50
9462;BME280;4769;42.660;23.262;2023-09-08T09:11:25;94435.00;;;28.46;37.57
9462;BME280;4769;42.660;23.262;2023-09-08T09:13:51;94444.66;;;28.98;36.73
9462;BME280;4769;42.660;23.262;2023-09-08T09:16:17;94452.97;;;29.05;36.61
9462;BME280;4769;42.660;23.262;2023-09-08T09:18:54;94446.53;;;29.10;36.64
9462;BME280;4769;42.660;23.262;2023-09-08T09:21:20;94456.63;;;28.70;37.33
9462;BME280;4769;42.660;23.262;2023-09-08T09:23:48;94436.06;;;28.17;37.60
9462;BME280;4769;42.660;23.262;2023-09-08T09:26:24;94434.16;;;28.57;37.61
9462;BME280;4769;42.660;23.262;2023-09-08T09:28:50;94432.19;;;28.97;36.53
9462;BME280;4769;42.660;23.262;2023-09-08T09:31:15;94432.63;;;28.44;37.04
9462;BME280;4769;42.660;23.262;2023-09-08T09:33:41;94443.59;;;28.36;37.35
9462;BME280;4769;42.660;23.262;2023-09-08T09:36:07;94440.47;;;27.62;37.87
9462;BME280;4769;42.660;23.262;2023-09-08T09:38:35;94438.88;;;28.09;38.35
9462;BME280;4769;42.660;23.262;2023-09-08T09:41:03;94440.91;;;28.63;37.06
9462;BME280;4769;42.660;23.262;2023-09-08T09:43:29;94429.69;;;28.77;37.01
9462;BME280;4769;42.660;23.262;2023-09-08T09:45:55;94433.53;;;28.76;36.68
9462;BME280;4769;42.660;23.262;2023-09-08T09:48:21;94442.94;;;28.66;36.68
9462;BME280;4769;42.660;23.262;2023-09-08T09:50:47;94432.56;;;27.69;37.78
9462;BME280;4769;42.660;23.262;2023-09-08T09:53:14;94428.41;;;27.15;39.22
9462;BME280;4769;42.660;23.262;2023-09-08T09:55:42;94427.34;;;27.28;39.70
9462;BME280;4769;42.660;23.262;2023-09-08T09:58:11;94422.06;;;27.43;39.27
9462;BME280;4769;42.660;23.262;2023-09-08T10:00:38;94414.38;;;27.69;40.50
9462;BME280;4769;42.660;23.262;2023-09-08T10:03:04;94421.28;;;27.91;39.09
9462;BME280;4769;42.660;23.262;2023-09-08T10:05:30;94428.84;;;27.97;39.50
9462;BME280;4769;42.660;23.262;2023-09-08T10:07:57;94423.22;;;27.90;39.54
9462;BME280;4769;42.660;23.262;2023-09-08T10:10:27;94407.84;;;27.46;38.91
9462;BME280;4769;42.660;23.262;2023-09-08T10:12:54;94416.88;;;27.50;39.21
9462;BME280;4769;42.660;23.262;2023-09-08T10:15:24;94415.41;;;27.53;39.89
9462;BME280;4769;42.660;23.262;2023-09-08T10:17:53;94420.47;;;27.54;40.14
9462;BME280;4769;42.660;23.262;2023-09-08T10:20:22;94412.25;;;27.75;39.49
9462;BME280;4769;42.660;23.262;2023-09-08T10:22:52;94412.94;;;27.60;39.33
9462;BME280;4769;42.660;23.262;2023-09-08T10:25:19;94411.56;;;27.66;39.29
9462;BME280;4769;42.660;23.262;2023-09-08T10:27:46;94411.91;;;28.00;38.51
9462;BME280;4769;42.660;23.262;2023-09-08T10:30:12;94411.72;;;28.33;37.35
9462;BME280;4769;42.660;23.262;2023-09-08T10:32:42;94413.44;;;28.65;37.16
9462;BME280;4769;42.660;23.262;2023-09-08T10:35:08;94405.88;;;29.13;37.09
9462;BME280;4769;42.660;23.262;2023-09-08T10:37:34;94393.31;;;29.67;35.89
9462;BME280;4769;42.660;23.262;2023-09-08T10:40:20;94385.91;;;29.52;35.74
9462;BME280;4769;42.660;23.262;2023-09-08T10:42:46;94390.09;;;29.03;36.63
9462;BME280;4769;42.660;23.262;2023-09-08T10:45:16;94390.75;;;28.85;36.88
9462;BME280;4769;42.660;23.262;2023-09-08T10:47:56;94397.47;;;28.48;37.86
9462;BME280;4769;42.660;23.262;2023-09-08T10:50:27;94398.81;;;27.90;39.64
9462;BME280;4769;42.660;23.262;2023-09-08T10:53:04;94393.41;;;27.66;40.44
9462;BME280;4769;42.660;23.262;2023-09-08T10:55:35;94403.91;;;27.92;39.81
9462;BME280;4769;42.660;23.262;2023-09-08T10:58:01;94389.03;;;28.65;38.82
9462;BME280;4769;42.660;23.262;2023-09-08T11:00:43;94385.56;;;28.95;38.29
9462;BME280;4769;42.660;23.262;2023-09-08T11:03:12;94376.81;;;29.14;37.59
9462;BME280;4769;42.660;23.262;2023-09-08T11:05:37;94378.31;;;29.27;37.11
9462;BME280;4769;42.660;23.262;2023-09-08T11:08:04;94383.38;;;29.75;36.50
9462;BME280;4769;42.660;23.262;2023-09-08T11:10:30;94370.41;;;29.68;36.51
9462;BME280;4769;42.660;23.262;2023-09-08T11:12:55;94372.88;;;29.58;36.81
9462;BME280;4769;42.660;23.262;2023-09-08T11:15:21;94374.34;;;29.24;37.04
9462;BME280;4769;42.660;23.262;2023-09-08T11:17:47;94363.56;;;29.28;37.01
9462;BME280;4769;42.660;23.262;2023-09-08T11:20:15;94359.56;;;28.94;37.58
9462;BME280;4769;42.660;23.262;2023-09-08T11:22:41;94367.00;;;28.82;37.71
9462;BME280;4769;42.660;23.262;2023-09-08T11:25:14;94371.50;;;28.90;37.87
9462;BME280;4769;42.660;23.262;2023-09-08T11:27:40;94363.59;;;28.85;38.17
9462;BME280;4769;42.660;23.262;2023-09-08T11:30:08;94371.63;;;29.24;37.57
9462;BME280;4769;42.660;23.262;2023-09-08T11:32:34;94363.84;;;28.80;37.80
9462;BME280;4769;42.660;23.262;2023-09-08T11:35:03;94367.09;;;29.13;37.55
9462;BME280;4769;42.660;23.262;2023-09-08T11:37:29;94353.41;;;29.25;37.20
9462;BME280;4769;42.660;23.262;2023-09-08T11:39:55;94359.97;;;29.08;37.53
9462;BME280;4769;42.660;23.262;2023-09-08T11:42:23;94350.31;;;30.07;36.03
9462;BME280;4769;42.660;23.262;2023-09-08T11:44:49;94359.47;;;30.53;35.13
9462;BME280;4769;42.660;23.262;2023-09-08T11:47:15;94356.66;;;30.49;34.51
9462;BME280;4769;42.660;23.262;2023-09-08T11:49:41;94346.16;;;31.31;34.01
9462;BME280;4769;42.660;23.262;2023-09-08T11:52:07;94353.28;;;31.84;32.54
9462;BME280;4769;42.660;23.262;2023-09-08T11:54:34;94351.28;;;32.07;32.35
9462;BME280;4769;42.660;23.262;2023-09-08T11:57:01;94345.75;;;32.30;31.92
9462;BME280;4769;42.660;23.262;2023-09-08T11:59:32;94349.06;;;32.16;32.00
9462;BME280;4769;42.660;23.262;2023-09-08T12:01:58;94342.84;;;31.67;32.42
9462;BME280;4769;42.660;23.262;2023-09-08T12:04:25;94351.31;;;32.11;32.09
9462;BME280;4769;42.660;23.262;2023-09-08T12:06:52;94359.56;;;32.44;31.02
9462;BME280;4769;42.660;23.262;2023-09-08T12:09:19;94347.78;;;32.10;31.65
9462;BME280;4769;42.660;23.262;2023-09-08T12:11:46;94337.88;;;32.54;31.02
9462;BME280;4769;42.660;23.262;2023-09-08T12:14:14;94345.06;;;33.02;30.96
9462;BME280;4769;42.660;23.262;2023-09-08T12:16:44;94344.31;;;33.05;30.42
9462;BME280;4769;42.660;23.262;2023-09-08T12:19:28;94335.78;;;32.77;30.66
9462;BME280;4769;42.660;23.262;2023-09-08T12:21:55;94324.28;;;32.28;31.07
9462;BME280;4769;42.660;23.262;2023-09-08T12:27:17;94332.91;;;31.78;31.31
9462;BME280;4769;42.660;23.262;2023-09-08T12:29:52;94335.34;;;32.39;31.15
9462;BME280;4769;42.660;23.262;2023-09-08T12:32:20;94328.16;;;32.90;30.08
9462;BME280;4769;42.660;23.262;2023-09-08T12:34:47;94326.44;;;33.58;29.02
9462;BME280;4769;42.660;23.262;2023-09-08T12:37:14;94318.69;;;33.67;29.09
9462;BME280;4769;42.660;23.262;2023-09-08T12:39:40;94308.34;;;33.94;29.05
9462;BME280;4769;42.660;23.262;2023-09-08T12:42:05;94313.13;;;34.11;28.59
9462;BME280;4769;42.660;23.262;2023-09-08T12:44:31;94306.84;;;34.07;28.34
9462;BME280;4769;42.660;23.262;2023-09-08T12:46:57;94305.97;;;34.67;27.21
9462;BME280;4769;42.660;23.262;2023-09-08T12:49:26;94291.09;;;34.72;27.30
9462;BME280;4769;42.660;23.262;2023-09-08T12:51:52;94296.28;;;34.94;26.50
9462;BME280;4769;42.660;23.262;2023-09-08T12:54:18;94309.22;;;34.12;26.66
9462;BME280;4769;42.660;23.262;2023-09-08T12:56:44;94305.00;;;34.28;26.90
9462;BME280;4769;42.660;23.262;2023-09-08T12:59:15;94298.72;;;34.17;27.15
9462;BME280;4769;42.660;23.262;2023-09-08T13:01:41;94298.56;;;33.93;27.56
9462;BME280;4769;42.660;23.262;2023-09-08T13:04:07;94294.25;;;33.88;27.26
9462;BME280;4769;42.660;23.262;2023-09-08T13:06:35;94302.34;;;34.35;27.11
9462;BME280;4769;42.660;23.262;2023-09-08T13:09:01;94291.69;;;34.20;26.96
9462;BME280;4769;42.660;23.262;2023-09-08T13:11:27;94289.69;;;34.10;27.31